Arthur Maersk — OXJH2 — position and weather

sailwx.info

Track history (hours):
 
Tides and Currents Weather Stations Pressure Air Temp Water Temp Dewpoint Dewpoint Depression Visibility Wind Speed Wind Dir Waves Ship Positions

Arthur Maersk

Last reported at 2016-May-03 01:33 UTC. Time now 2016-May-03 03:06 UTC.
Position N 36°32' E 014°12'.

Length 352 m; draft 13.4 m.

Type: Ship (hazmat cat A). MMSI: 220221000.

Date/timePositionNaut miles runAvg speedWind from/ knotsBaromVisibWave heightAir tempDewpointWater temp
2016-May-03 01:33N 36°32' E 014°12'2020.3
2016-May-03 00:33N 36°26' E 014°36'91720.3
2016-May-01 03:29N 31°39' E 032°07'1819.0
2016-May-01 02:33N 31°27' E 032°23'1513.1
2016-May-01 01:26N 31°13' E 032°20'7 7.8
2016-May-01 00:33N 31°06' E 032°18'1010.1
2016-Apr-30 23:33N 30°56' E 032°19'1010.5
2016-Apr-30 22:33N 30°45' E 032°20'10 9.7
2016-Apr-30 21:33N 30°36' E 032°20'51 2.1
2016-Apr-29 21:11N 29°47' E 032°36'  
Track history (hours):
 
Tides and Currents Weather Stations Pressure Air Temp Water Temp Dewpoint Dewpoint Depression Visibility Wind Speed Wind Dir Waves Ship Positions

Arthur Maersk

Last reported at 2016-May-03 01:33 UTC. Time now 2016-May-03 03:06 UTC.
Position N 36°32' E 014°12'.

Length 352 m; draft 13.4 m.

Type: Ship (hazmat cat A). MMSI: 220221000.

Date/timePositionNaut miles runAvg speedWind from/ knotsBaromVisibWave heightAir tempDewpointWater temp
2016-May-03 01:33N 36°32' E 014°12'2020.3
2016-May-03 00:33N 36°26' E 014°36'91720.3
2016-May-01 03:29N 31°39' E 032°07'1819.0
2016-May-01 02:33N 31°27' E 032°23'1513.1
2016-May-01 01:26N 31°13' E 032°20'7 7.8
2016-May-01 00:33N 31°06' E 032°18'1010.1
2016-Apr-30 23:33N 30°56' E 032°19'1010.5
2016-Apr-30 22:33N 30°45' E 032°20'10 9.7
2016-Apr-30 21:33N 30°36' E 032°20'51 2.1
2016-Apr-29 21:11N 29°47' E 032°36'  

Dump ship's entire track history